Time;durP1;ratioP1;P1;durP2;ratioP2;P2;SDS_P1;SDS_P2;PMS_P1;PMS_P2;Temp;Humidity;BMP_temperature;BMP_pressure;BME280_temperature;BME280_humidity;BME280_pressure;Samples;Min_cycle;Max_cycle;Signal;HPM_P1;HPM_P2
2022/07/02 00:00:51;;;;;;;5.50;3.80;;;19.50;79.90;;;;;;6232296;23;20012;-76
2022/07/02 00:03:23;;;;;;;6.10;5.05;;;19.50;79.70;;;;;;6232148;23;20019;-76
2022/07/02 00:05:55;;;;;;;6.13;4.93;;;19.70;78.40;;;;;;6231496;23;20026;-76
2022/07/02 00:08:24;;;;;;;5.63;4.35;;;19.70;78.20;;;;;;6231422;23;20661;-78
2022/07/02 00:10:51;;;;;;;7.35;4.93;;;19.50;78.40;;;;;;6232294;23;20388;-78
2022/07/02 00:13:18;;;;;;;5.57;4.85;;;19.20;78.80;;;;;;6232457;23;20083;-79
2022/07/02 00:15:44;;;;;;;7.68;5.38;;;18.80;80.40;;;;;;6232122;23;20008;-79
2022/07/02 00:18:11;;;;;;;6.50;5.60;;;18.50;82.10;;;;;;6231781;23;20008;-79
2022/07/02 00:20:42;;;;;;;6.65;5.78;;;18.30;83.00;;;;;;6232077;23;20008;-79
2022/07/02 00:23:08;;;;;;;7.22;5.95;;;18.10;83.80;;;;;;6232246;23;20012;-79
2022/07/02 00:25:42;;;;;;;6.63;5.90;;;17.90;84.80;;;;;;6232023;23;20015;-77
2022/07/02 00:28:11;;;;;;;5.70;5.03;;;18.00;86.90;;;;;;6203065;23;20012;-79
2022/07/02 00:30:46;;;;;;;7.50;5.53;;;18.20;85.20;;;;;;6241644;23;19997;-79
2022/07/02 00:33:16;;;;;;;8.32;6.43;;;18.20;83.50;;;;;;6231303;23;20338;-79
2022/07/02 00:35:43;;;;;;;8.20;7.05;;;18.10;83.60;;;;;;6240616;23;20107;-79
2022/07/02 00:38:10;;;;;;;8.10;6.70;;;18.00;84.10;;;;;;6202989;23;20465;-79
2022/07/02 00:40:37;;;;;;;9.95;6.45;;;17.90;84.40;;;;;;6230402;23;20884;-79
2022/07/02 00:43:03;;;;;;;7.13;6.35;;;17.80;85.10;;;;;;6230212;23;20513;-79
2022/07/02 00:45:32;;;;;;;8.90;7.13;;;17.70;85.40;;;;;;6229888;23;20040;-79
2022/07/02 00:47:59;;;;;;;8.50;6.70;;;17.60;85.70;;;;;;6230116;23;20019;-79
2022/07/02 00:50:25;;;;;;;8.13;6.57;;;17.50;86.00;;;;;;6229341;23;20489;-79
2022/07/02 00:52:50;;;;;;;8.93;6.95;;;17.50;86.40;;;;;;6231113;23;20008;-79
2022/07/02 00:55:17;;;;;;;9.68;7.18;;;17.50;87.60;;;;;;6231031;23;20648;-79
2022/07/02 00:57:46;;;;;;;8.93;7.30;;;17.40;86.90;;;;;;6230710;23;20091;-79
2022/07/02 01:00:14;;;;;;;8.20;7.38;;;17.40;87.10;;;;;;6240890;23;20004;-79
2022/07/02 01:02:43;;;;;;;7.57;6.78;;;17.40;87.40;;;;;;6231862;23;20019;-79
2022/07/02 01:05:09;;;;;;;9.70;7.57;;;17.30;87.60;;;;;;6241541;23;20011;-79
2022/07/02 01:07:36;;;;;;;7.93;7.13;;;17.30;87.60;;;;;;6231073;23;20611;-79
2022/07/02 01:10:17;;;;;;;8.80;7.63;;;17.30;87.70;;;;;;6231784;23;20011;-79
2022/07/02 01:12:46;;;;;;;9.68;7.90;;;17.20;88.10;;;;;;6231376;23;20014;-79
2022/07/02 01:15:13;;;;;;;12.00;8.40;;;17.20;88.10;;;;;;6231485;23;20115;-79
2022/07/02 01:17:38;;;;;;;8.40;6.95;;;17.20;88.50;;;;;;6231158;23;20008;-79
2022/07/02 01:20:05;;;;;;;10.73;8.15;;;17.20;88.40;;;;;;6241346;23;20000;-79
2022/07/02 01:22:38;;;;;;;10.02;8.13;;;17.10;88.70;;;;;;6204313;23;20077;-79
2022/07/02 01:25:06;;;;;;;9.40;8.15;;;17.10;89.00;;;;;;6232339;23;20051;-79
2022/07/02 01:27:32;;;;;;;9.73;7.30;;;17.20;89.00;;;;;;6231271;23;20000;-79
2022/07/02 01:29:58;;;;;;;8.27;7.38;;;17.10;88.70;;;;;;6231067;23;20109;-79
2022/07/02 01:32:24;;;;;;;11.73;7.05;;;17.10;89.10;;;;;;6179394;23;20095;-79
2022/07/02 01:34:53;;;;;;;11.07;8.18;;;17.10;89.20;;;;;;6203580;23;20032;-79
2022/07/02 01:37:21;;;;;;;8.85;7.78;;;17.10;89.60;;;;;;6178794;23;20740;-79
2022/07/02 01:39:48;;;;;;;10.95;7.43;;;17.10;89.30;;;;;;6231096;23;20016;-79
2022/07/02 01:42:15;;;;;;;7.97;6.85;;;17.10;89.20;;;;;;6239740;23;20012;-79
2022/07/02 01:44:41;;;;;;;8.07;6.93;;;17.10;89.20;;;;;;6241245;23;20008;-80
2022/07/02 01:47:10;;;;;;;7.55;6.72;;;17.10;89.20;;;;;;6241721;23;20070;-79
2022/07/02 01:49:38;;;;;;;10.02;7.53;;;17.10;89.10;;;;;;6230400;22;20008;-79
2022/07/02 01:52:05;;;;;;;8.52;6.72;;;17.20;89.00;;;;;;6243621;23;20008;-79
2022/07/02 01:54:31;;;;;;;7.40;6.57;;;17.20;89.10;;;;;;6233544;23;20009;-79
2022/07/02 01:56:57;;;;;;;6.75;6.15;;;17.20;88.90;;;;;;6232847;23;20441;-79
2022/07/02 01:59:23;;;;;;;7.38;6.47;;;17.30;88.80;;;;;;6242270;23;20016;-79
2022/07/02 02:01:49;;;;;;;7.78;6.53;;;17.20;88.60;;;;;;6232758;23;20023;-79
2022/07/02 02:04:14;;;;;;;7.75;6.70;;;17.30;88.40;;;;;;6232215;23;20747;-79
2022/07/02 02:06:41;;;;;;;9.88;7.78;;;17.30;88.20;;;;;;6233176;23;20020;-79
2022/07/02 02:09:06;;;;;;;7.85;6.40;;;17.30;88.00;;;;;;6231509;23;20004;-79
2022/07/02 02:11:32;;;;;;;7.97;6.90;;;17.30;87.60;;;;;;6242742;23;20091;-79
2022/07/02 02:13:59;;;;;;;7.03;6.32;;;17.20;87.20;;;;;;6232872;23;20393;-79
2022/07/02 02:16:27;;;;;;;7.93;6.13;;;17.20;87.20;;;;;;6233165;23;20027;-79
2022/07/02 02:18:53;;;;;;;7.90;7.10;;;17.10;87.00;;;;;;6241518;23;20008;-78
2022/07/02 02:21:19;;;;;;;8.40;7.38;;;17.00;86.90;;;;;;6242881;23;20016;-79
2022/07/02 02:23:45;;;;;;;8.40;7.13;;;17.00;86.90;;;;;;6204999;23;20378;-79
2022/07/02 02:26:11;;;;;;;7.30;6.60;;;16.90;87.90;;;;;;6231890;23;20016;-79
2022/07/02 02:28:36;;;;;;;8.43;7.63;;;16.90;87.60;;;;;;6232129;23;20016;-79
2022/07/02 02:31:03;;;;;;;7.40;6.57;;;16.80;87.60;;;;;;6205234;23;20429;-79
2022/07/02 02:33:28;;;;;;;7.45;6.45;;;16.80;87.40;;;;;;6232577;23;20463;-79
2022/07/02 02:35:54;;;;;;;7.03;6.32;;;16.70;87.40;;;;;;6233041;23;20012;-79
2022/07/02 02:38:20;;;;;;;7.25;6.45;;;16.70;87.80;;;;;;6232274;23;20442;-79
2022/07/02 02:40:46;;;;;;;7.47;6.53;;;16.70;88.00;;;;;;6232815;23;20036;-79
2022/07/02 02:43:12;;;;;;;8.23;7.00;;;16.60;88.10;;;;;;6231050;23;20008;-79
2022/07/02 02:45:37;;;;;;;9.05;6.68;;;16.60;88.20;;;;;;6232165;23;20012;-79
2022/07/02 02:48:03;;;;;;;7.35;6.55;;;16.60;88.30;;;;;;6230282;23;20099;-79
2022/07/02 02:50:29;;;;;;;7.40;6.70;;;16.60;88.60;;;;;;6229933;23;20123;-79
2022/07/02 02:52:55;;;;;;;8.32;7.20;;;16.60;88.80;;;;;;6231594;23;20012;-79
2022/07/02 02:55:21;;;;;;;10.05;7.63;;;16.60;89.00;;;;;;6242600;23;20008;-79
2022/07/02 02:57:46;;;;;;;8.48;6.75;;;16.50;89.00;;;;;;6229961;23;20007;-79
2022/07/02 03:00:13;;;;;;;7.63;6.82;;;16.60;89.20;;;;;;6242396;23;20738;-78
2022/07/02 03:02:38;;;;;;;7.53;6.72;;;16.60;89.00;;;;;;6231415;23;20054;-78
2022/07/02 03:05:04;;;;;;;7.30;5.93;;;16.60;88.90;;;;;;6242479;23;20601;-79
2022/07/02 03:07:31;;;;;;;6.95;6.25;;;16.60;88.90;;;;;;6232361;23;20012;-79
2022/07/02 03:09:56;;;;;;;8.07;7.25;;;16.50;89.00;;;;;;6231594;23;20088;-79
2022/07/02 03:12:22;;;;;;;7.20;6.50;;;16.60;89.00;;;;;;6232115;23;20485;-79
2022/07/02 03:14:48;;;;;;;7.88;6.75;;;16.60;88.60;;;;;;6231329;23;20591;-80
2022/07/02 03:17:13;;;;;;;8.35;7.18;;;16.60;88.60;;;;;;6229539;23;20020;-79
2022/07/02 03:19:39;;;;;;;8.02;7.03;;;16.60;88.90;;;;;;6241386;23;20345;-79
2022/07/02 03:22:05;;;;;;;8.25;7.40;;;16.60;89.00;;;;;;6232268;23;20019;-79
2022/07/02 03:24:31;;;;;;;6.97;6.03;;;16.60;89.30;;;;;;6231891;23;20046;-79
2022/07/02 03:26:57;;;;;;;9.43;6.68;;;16.60;89.50;;;;;;6232421;23;20012;-79
2022/07/02 03:29:23;;;;;;;11.45;7.75;;;16.50;89.60;;;;;;6231803;23;20296;-79
2022/07/02 03:31:48;;;;;;;8.43;6.88;;;16.50;89.60;;;;;;6231655;23;20082;-79
2022/07/02 03:34:14;;;;;;;9.32;6.95;;;16.60;89.70;;;;;;6242481;23;20513;-79
2022/07/02 03:36:40;;;;;;;10.02;7.30;;;16.60;89.60;;;;;;6232134;23;20008;-79
2022/07/02 03:39:05;;;;;;;7.28;6.47;;;16.60;89.70;;;;;;6231630;23;20035;-79
2022/07/02 03:41:31;;;;;;;8.30;7.50;;;16.60;89.50;;;;;;6230281;23;20436;-79
2022/07/02 03:43:57;;;;;;;8.00;6.70;;;16.60;89.50;;;;;;6231744;23;20085;-79
2022/07/02 03:46:23;;;;;;;8.85;7.13;;;16.60;89.60;;;;;;6242507;23;20016;-79
2022/07/02 03:48:49;;;;;;;7.10;6.22;;;16.60;89.50;;;;;;6231241;23;20015;-79
2022/07/02 03:51:15;;;;;;;7.38;6.60;;;16.60;89.40;;;;;;6242825;23;20011;-79
2022/07/02 03:53:41;;;;;;;7.97;6.63;;;16.60;89.50;;;;;;6231983;23;20058;-79
2022/07/02 03:56:08;;;;;;;7.53;6.82;;;16.60;90.10;;;;;;6232176;23;20004;-79
2022/07/02 03:58:34;;;;;;;7.85;5.88;;;16.60;89.80;;;;;;6231537;23;20016;-79
2022/07/02 04:00:59;;;;;;;9.43;7.72;;;16.60;89.90;;;;;;6242096;23;20066;-79
2022/07/02 04:03:25;;;;;;;8.93;7.32;;;16.70;90.00;;;;;;6232481;23;20008;-79
2022/07/02 04:05:51;;;;;;;8.85;7.05;;;16.80;89.60;;;;;;6232425;23;20012;-79
2022/07/02 04:08:17;;;;;;;9.40;7.43;;;16.80;89.50;;;;;;6231112;23;20018;-79
2022/07/02 04:10:44;;;;;;;8.85;7.50;;;16.80;89.50;;;;;;6232452;23;20023;-79
2022/07/02 04:13:11;;;;;;;9.23;6.88;;;16.80;89.50;;;;;;6205240;23;20047;-79
2022/07/02 04:15:36;;;;;;;11.18;7.85;;;16.90;89.50;;;;;;6231850;23;20386;-79
2022/07/02 04:18:02;;;;;;;9.13;7.95;;;16.90;89.70;;;;;;6231852;23;20004;-79
2022/07/02 04:20:28;;;;;;;11.45;7.38;;;16.90;89.80;;;;;;6231898;23;20008;-79
2022/07/02 04:22:54;;;;;;;9.48;7.05;;;16.90;89.80;;;;;;6231877;23;20015;-79
2022/07/02 04:25:20;;;;;;;8.32;7.07;;;16.90;89.80;;;;;;6232126;23;20339;-79
2022/07/02 04:27:46;;;;;;;8.65;6.90;;;16.90;89.80;;;;;;6231535;23;20850;-79
2022/07/02 04:30:12;;;;;;;8.07;6.10;;;17.00;89.80;;;;;;6232396;23;20054;-79
2022/07/02 04:32:38;;;;;;;8.40;7.30;;;17.00;89.60;;;;;;6204746;23;20008;-79
2022/07/02 04:35:05;;;;;;;8.63;6.88;;;17.00;89.70;;;;;;6232836;23;20080;-79
2022/07/02 04:37:31;;;;;;;7.82;7.03;;;17.00;89.70;;;;;;6232557;23;20019;-80
2022/07/02 04:39:56;;;;;;;7.60;5.60;;;17.00;90.00;;;;;;6231547;23;20008;-79
2022/07/02 04:42:22;;;;;;;6.93;6.22;;;17.00;90.00;;;;;;6232447;23;20094;-79
2022/07/02 04:44:48;;;;;;;9.05;6.50;;;17.00;90.10;;;;;;6231647;23;20646;-79
2022/07/02 04:47:14;;;;;;;7.13;6.43;;;17.00;90.20;;;;;;6230681;23;20008;-79
2022/07/02 04:49:39;;;;;;;6.82;6.22;;;17.00;90.30;;;;;;6204403;23;20012;-79
2022/07/02 04:52:05;;;;;;;7.13;6.40;;;17.00;90.60;;;;;;6205025;23;20341;-79
2022/07/02 04:54:31;;;;;;;9.10;6.88;;;17.00;90.30;;;;;;6241757;23;20464;-79
2022/07/02 04:56:57;;;;;;;6.15;5.55;;;17.10;90.40;;;;;;6232145;22;20107;-79
2022/07/02 04:59:23;;;;;;;6.75;6.07;;;17.10;90.40;;;;;;6231324;23;20119;-79
2022/07/02 05:01:49;;;;;;;16.02;7.07;;;17.10;90.50;;;;;;6240494;23;20019;-80
2022/07/02 05:04:15;;;;;;;9.52;6.85;;;17.10;90.50;;;;;;6231270;23;20493;-80
2022/07/02 05:06:40;;;;;;;5.88;5.25;;;17.10;90.60;;;;;;6230982;23;20046;-80
2022/07/02 05:09:06;;;;;;;6.13;5.47;;;17.20;90.80;;;;;;6230885;23;20024;-79
2022/07/02 05:11:32;;;;;;;8.45;6.95;;;17.20;91.10;;;;;;6231407;23;20004;-79
2022/07/02 05:13:57;;;;;;;11.30;7.03;;;17.20;91.30;;;;;;6231589;23;20350;-79
2022/07/02 05:16:23;;;;;;;8.88;7.22;;;17.30;91.30;;;;;;6204436;23;20754;-80
2022/07/02 05:18:49;;;;;;;8.60;6.00;;;17.30;91.40;;;;;;6240857;23;20012;-80
2022/07/02 05:21:15;;;;;;;7.55;6.03;;;17.40;91.30;;;;;;6231545;23;20012;-80
2022/07/02 05:23:40;;;;;;;10.10;6.70;;;17.40;91.30;;;;;;6231019;23;20036;-80
2022/07/02 05:26:06;;;;;;;10.07;6.43;;;17.60;91.40;;;;;;6231286;23;20022;-79
2022/07/02 05:28:32;;;;;;;7.72;6.00;;;17.70;91.30;;;;;;6240770;23;20012;-79
2022/07/02 05:30:58;;;;;;;10.13;5.90;;;17.90;91.70;;;;;;6231255;23;20409;-80
2022/07/02 05:33:24;;;;;;;8.25;6.30;;;18.10;91.50;;;;;;6231968;23;20009;-79
2022/07/02 05:35:50;;;;;;;6.57;5.78;;;18.30;91.00;;;;;;6231085;23;20021;-80
2022/07/02 05:38:15;;;;;;;10.85;6.53;;;18.40;90.70;;;;;;6230583;23;20023;-80
2022/07/02 05:40:41;;;;;;;5.93;5.07;;;18.60;89.60;;;;;;6230961;23;20062;-80
2022/07/02 05:43:07;;;;;;;5.63;5.13;;;18.60;89.60;;;;;;6231167;23;20058;-79
2022/07/02 05:45:33;;;;;;;8.60;5.72;;;18.70;89.60;;;;;;6230438;23;20031;-80
2022/07/02 05:47:58;;;;;;;6.32;5.70;;;18.70;89.80;;;;;;6231650;23;20012;-80
2022/07/02 05:50:24;;;;;;;5.05;4.55;;;18.80;89.60;;;;;;6241445;23;20341;-80
2022/07/02 05:52:50;;;;;;;8.00;4.72;;;18.90;89.60;;;;;;6230810;23;20767;-80
2022/07/02 05:55:16;;;;;;;6.53;5.45;;;19.10;87.20;;;;;;6241494;23;20008;-80
2022/07/02 05:57:41;;;;;;;5.72;5.22;;;19.30;84.50;;;;;;6230452;22;20023;-80
2022/07/02 06:00:10;;;;;;;5.93;5.00;;;19.40;85.50;;;;;;6230411;23;20087;-80
2022/07/02 06:02:36;;;;;;;6.53;4.75;;;19.30;85.60;;;;;;6230825;23;20008;-80
2022/07/02 06:07:47;;;;;;;5.97;4.15;;;19.20;86.50;;;;;;6230710;23;20016;-79
2022/07/02 06:10:18;;;;;;;4.80;4.18;;;19.20;86.90;;;;;;6240604;23;20522;-80
2022/07/02 06:12:48;;;;;;;4.93;4.40;;;19.20;87.30;;;;;;6230235;23;20019;-80
2022/07/02 06:15:14;;;;;;;8.70;5.43;;;19.30;87.50;;;;;;6230526;23;20012;-80
2022/07/02 06:17:40;;;;;;;6.93;5.45;;;19.50;84.80;;;;;;6231047;23;20023;-80
2022/07/02 06:20:06;;;;;;;7.05;5.28;;;19.70;82.40;;;;;;6230283;23;20027;-80
2022/07/02 06:22:32;;;;;;;7.95;4.70;;;19.90;81.10;;;;;;6230610;23;20097;-80
2022/07/02 06:24:58;;;;;;;6.50;4.45;;;20.10;79.30;;;;;;6241010;23;20012;-79
2022/07/02 06:27:23;;;;;;;6.53;4.32;;;20.10;80.10;;;;;;6231113;23;20077;-80
2022/07/02 06:29:49;;;;;;;6.65;4.60;;;20.10;80.20;;;;;;6239718;23;20012;-79
2022/07/02 06:32:16;;;;;;;5.85;4.32;;;20.10;81.40;;;;;;6230758;23;20008;-80
2022/07/02 06:34:43;;;;;;;5.68;4.53;;;20.10;82.30;;;;;;6230024;23;20027;-79
2022/07/02 06:37:09;;;;;;;5.13;4.20;;;20.10;82.90;;;;;;6231139;23;20012;-80
2022/07/02 06:39:35;;;;;;;6.28;4.63;;;20.10;82.90;;;;;;6231945;23;20356;-80
2022/07/02 06:42:19;;;;;;;5.50;4.13;;;20.10;81.20;;;;;;6232284;23;20012;-80
2022/07/02 06:44:47;;;;;;;7.13;4.35;;;20.20;81.70;;;;;;6232644;23;20016;-80
2022/07/02 06:47:14;;;;;;;6.90;4.55;;;20.30;81.70;;;;;;6231968;23;20012;-80
2022/07/02 06:49:40;;;;;;;7.55;3.60;;;20.30;80.20;;;;;;6232033;23;20022;-79
2022/07/02 06:52:07;;;;;;;8.10;4.60;;;20.40;80.10;;;;;;6231774;23;20099;-80
2022/07/02 06:54:33;;;;;;;4.05;3.75;;;20.50;80.20;;;;;;6231445;23;19996;-79
2022/07/02 06:56:59;;;;;;;7.35;4.28;;;20.50;77.50;;;;;;6231602;23;20017;-79
2022/07/02 06:59:25;;;;;;;4.80;3.35;;;20.60;78.00;;;;;;6231121;23;20022;-80
2022/07/02 07:01:51;;;;;;;6.88;3.90;;;20.70;78.50;;;;;;6214687;23;20078;-79
2022/07/02 07:04:17;;;;;;;4.22;3.80;;;20.90;76.90;;;;;;6231869;23;20036;-80
2022/07/02 07:06:55;;;;;;;4.38;3.60;;;21.00;75.20;;;;;;6231316;23;20686;-80
2022/07/02 07:09:21;;;;;;;7.85;4.50;;;21.10;75.50;;;;;;6204003;23;20008;-80
2022/07/02 07:11:46;;;;;;;6.95;3.58;;;21.20;75.20;;;;;;6232503;23;20011;-80
2022/07/02 07:14:12;;;;;;;4.45;3.47;;;21.20;75.10;;;;;;6232519;23;20008;-80
2022/07/02 07:16:38;;;;;;;4.68;3.50;;;21.20;73.90;;;;;;6232709;23;20685;-80
2022/07/02 07:19:07;;;;;;;4.03;3.42;;;21.10;73.40;;;;;;6242993;23;20004;-79
2022/07/02 07:21:38;;;;;;;6.20;3.40;;;21.10;75.20;;;;;;6232611;23;20039;-80
2022/07/02 07:24:05;;;;;;;3.80;3.42;;;21.20;75.00;;;;;;6232534;23;20397;-79
2022/07/02 07:26:31;;;;;;;3.65;3.35;;;21.40;75.00;;;;;;6232586;23;20011;-80
2022/07/02 07:28:57;;;;;;;3.65;3.10;;;21.40;74.30;;;;;;6231291;23;20799;-79
2022/07/02 07:31:23;;;;;;;3.22;2.92;;;21.40;74.30;;;;;;6231961;23;20015;-79
2022/07/02 07:33:54;;;;;;;3.72;3.00;;;21.50;74.30;;;;;;6231931;23;20055;-80
2022/07/02 07:36:21;;;;;;;4.35;3.15;;;21.60;71.00;;;;;;6241082;23;20070;-80
2022/07/02 07:38:49;;;;;;;4.20;3.00;;;21.60;71.10;;;;;;6240628;23;20083;-80
2022/07/02 07:41:16;;;;;;;4.25;2.80;;;21.70;70.30;;;;;;6231712;23;20031;-80
2022/07/02 07:43:41;;;;;;;5.80;3.00;;;21.70;70.40;;;;;;6230737;23;20334;-80
2022/07/02 07:46:07;;;;;;;3.83;2.63;;;21.90;70.30;;;;;;6231257;23;20019;-80
2022/07/02 07:48:33;;;;;;;3.88;2.30;;;21.90;69.50;;;;;;6230425;23;20023;-79
2022/07/02 07:50:59;;;;;;;4.10;2.72;;;22.00;69.50;;;;;;6204710;23;20354;-80
2022/07/02 07:53:25;;;;;;;2.67;2.30;;;22.00;66.70;;;;;;6232580;23;20079;-80
2022/07/02 07:55:52;;;;;;;3.63;2.50;;;22.00;68.10;;;;;;6232429;23;20705;-79
2022/07/02 07:58:17;;;;;;;4.05;2.60;;;22.00;68.80;;;;;;6231432;22;20016;-79
2022/07/02 08:00:45;;;;;;;6.07;2.53;;;21.90;69.70;;;;;;6242768;23;20019;-80
2022/07/02 08:03:11;;;;;;;3.28;2.40;;;22.00;68.90;;;;;;6242835;23;20079;-79
2022/07/02 08:05:37;;;;;;;4.70;2.80;;;22.00;68.90;;;;;;6230632;23;20039;-81
2022/07/02 08:08:03;;;;;;;4.97;2.47;;;22.10;67.50;;;;;;6230615;23;20016;-80
2022/07/02 08:10:29;;;;;;;10.07;2.65;;;22.10;70.40;;;;;;6230615;23;20058;-79
2022/07/02 08:12:55;;;;;;;4.40;2.15;;;22.20;68.00;;;;;;6229663;23;20008;-80
2022/07/02 08:15:21;;;;;;;2.55;2.00;;;22.10;63.90;;;;;;6228686;23;20742;-80
2022/07/02 08:17:47;;;;;;;20.25;11.80;;;22.10;65.70;;;;;;6230447;23;20039;-77
2022/07/02 08:20:13;;;;;;;4.18;2.88;;;22.10;65.30;;;;;;6230017;23;20012;-76
2022/07/02 08:22:39;;;;;;;4.88;2.28;;;22.20;66.10;;;;;;6202597;23;20007;-80
2022/07/02 08:25:07;;;;;;;6.13;2.03;;;22.30;66.00;;;;;;6231139;23;20008;-76
2022/07/02 08:27:33;;;;;;;2.22;1.70;;;22.30;62.50;;;;;;6230974;23;20069;-80
2022/07/02 08:29:59;;;;;;;5.25;3.28;;;22.40;62.00;;;;;;6230669;23;20015;-80
2022/07/02 08:32:25;;;;;;;5.60;2.58;;;22.50;61.70;;;;;;6231106;23;20012;-80
2022/07/02 08:34:53;;;;;;;3.05;1.83;;;22.60;60.90;;;;;;6230941;23;20012;-80
2022/07/02 08:37:21;;;;;;;6.30;1.15;;;22.70;59.20;;;;;;6232706;23;20442;-83
2022/07/02 08:39:47;;;;;;;3.05;1.58;;;22.80;59.30;;;;;;6231258;23;20014;-84
2022/07/02 08:42:24;;;;;;;2.80;1.50;;;22.80;59.60;;;;;;6241963;23;20284;-80
2022/07/02 08:44:56;;;;;;;2.60;1.73;;;22.90;59.70;;;;;;6230829;23;20419;-80
2022/07/02 08:47:23;;;;;;;4.78;1.40;;;23.00;57.20;;;;;;6232282;23;20111;-78
2022/07/02 08:49:51;;;;;;;2.42;1.15;;;23.00;57.40;;;;;;6230370;23;20373;-73
2022/07/02 08:52:19;;;;;;;3.28;1.10;;;23.00;56.40;;;;;;6230767;23;20011;-70
2022/07/02 08:54:46;;;;;;;6.43;1.55;;;23.10;56.00;;;;;;6230121;23;20008;-69
2022/07/02 08:57:13;;;;;;;8.60;2.05;;;23.20;57.20;;;;;;6230608;23;20008;-70
2022/07/02 08:59:39;;;;;;;23.05;14.30;;;23.30;55.70;;;;;;6240535;23;20067;-71
2022/07/02 09:02:12;;;;;;;4.25;2.40;;;23.40;56.50;;;;;;6241307;23;20116;-71
2022/07/02 09:04:46;;;;;;;3.35;1.88;;;23.50;54.30;;;;;;6230356;23;20012;-71
2022/07/02 09:07:13;;;;;;;2.58;1.20;;;23.50;54.10;;;;;;6231117;23;20028;-71
2022/07/02 09:09:42;;;;;;;4.53;1.65;;;23.40;53.90;;;;;;6204323;23;20014;-70
2022/07/02 09:12:17;;;;;;;11.65;6.10;;;23.50;54.10;;;;;;6203963;23;20008;-70
2022/07/02 09:14:44;;;;;;;3.47;1.90;;;23.50;54.20;;;;;;6231849;23;20082;-71
2022/07/02 09:17:11;;;;;;;2.50;1.35;;;23.50;53.90;;;;;;6231270;23;20024;-71
2022/07/02 09:19:38;;;;;;;3.67;1.52;;;23.60;52.10;;;;;;6229897;23;20012;-71
2022/07/02 09:22:06;;;;;;;1.10;1.00;;;23.60;52.00;;;;;;6229593;23;20035;-70
2022/07/02 09:24:42;;;;;;;2.95;1.40;;;23.60;51.90;;;;;;6240818;23;20008;-71
2022/07/02 09:27:12;;;;;;;2.55;1.20;;;23.60;52.20;;;;;;6240348;23;20465;-71
2022/07/02 09:29:54;;;;;;;1.73;1.00;;;23.70;53.30;;;;;;6202262;23;20446;-71
2022/07/02 09:32:21;;;;;;;2.45;1.10;;;23.70;51.00;;;;;;6239976;23;20058;-71
2022/07/02 09:34:49;;;;;;;5.70;1.17;;;23.70;52.80;;;;;;6228846;23;20011;-71
2022/07/02 09:37:16;;;;;;;1.80;1.13;;;23.70;52.10;;;;;;6203675;23;20596;-70
2022/07/02 09:39:43;;;;;;;2.22;1.35;;;23.80;51.60;;;;;;6229702;23;20016;-74
2022/07/02 09:42:22;;;;;;;3.33;1.30;;;23.90;51.10;;;;;;6239162;23;20016;-72
2022/07/02 09:44:48;;;;;;;2.92;1.33;;;24.00;50.10;;;;;;6240910;23;20733;-72
2022/07/02 09:47:14;;;;;;;3.35;1.10;;;23.90;49.70;;;;;;6204839;23;20044;-72
2022/07/02 09:49:50;;;;;;;2.80;1.20;;;23.90;50.20;;;;;;6227233;23;20020;-72
2022/07/02 09:52:17;;;;;;;3.25;1.33;;;24.00;51.70;;;;;;6227112;23;20004;-72
2022/07/02 09:54:44;;;;;;;3.67;1.42;;;24.10;51.00;;;;;;6227180;23;20000;-72
2022/07/02 09:57:11;;;;;;;1.38;1.02;;;24.10;54.10;;;;;;6226433;22;20016;-71
2022/07/02 09:59:38;;;;;;;3.10;1.08;;;24.10;50.00;;;;;;6226503;23;20012;-70
2022/07/02 10:02:04;;;;;;;2.42;1.20;;;24.10;49.50;;;;;;6227309;23;20019;-72
2022/07/02 10:04:32;;;;;;;4.00;2.60;;;24.00;50.20;;;;;;6237461;23;20035;-72
2022/07/02 10:06:59;;;;;;;2.80;1.98;;;24.10;50.20;;;;;;6229589;23;20054;-73
2022/07/02 10:09:26;;;;;;;2.85;1.20;;;24.10;50.20;;;;;;6229525;23;20568;-71
2022/07/02 10:11:52;;;;;;;4.10;1.20;;;24.30;50.00;;;;;;6241266;23;20083;-72
2022/07/02 10:14:23;;;;;;;3.05;1.45;;;24.30;50.10;;;;;;6242321;23;20042;-72
2022/07/02 10:16:51;;;;;;;3.70;2.30;;;24.30;49.60;;;;;;6232521;23;20012;-72
2022/07/02 10:19:18;;;;;;;2.35;1.10;;;24.30;51.00;;;;;;6242090;23;20466;-72
2022/07/02 10:21:47;;;;;;;1.10;1.00;;;24.40;50.80;;;;;;6232551;23;20016;-72
2022/07/02 10:24:13;;;;;;;2.22;1.48;;;24.40;49.00;;;;;;6232736;23;20043;-70
2022/07/02 10:26:39;;;;;;;3.88;1.17;;;24.40;50.30;;;;;;6230667;23;20016;-69
2022/07/02 10:29:06;;;;;;;2.92;1.58;;;24.50;47.20;;;;;;6232057;23;20016;-72
2022/07/02 10:31:41;;;;;;;3.70;1.10;;;24.60;49.60;;;;;;6231707;23;20034;-72
2022/07/02 10:34:19;;;;;;;4.32;1.00;;;24.60;49.20;;;;;;6204887;23;20004;-72
2022/07/02 10:36:46;;;;;;;5.07;2.00;;;24.60;48.60;;;;;;6231224;23;20015;-72
2022/07/02 10:39:16;;;;;;;2.38;1.10;;;24.60;48.60;;;;;;6241819;23;20015;-72
2022/07/02 10:41:42;;;;;;;3.72;1.20;;;24.70;48.00;;;;;;6230689;23;20438;-72
2022/07/02 10:44:09;;;;;;;4.18;1.35;;;24.80;48.10;;;;;;6231588;23;20016;-72
2022/07/02 10:46:36;;;;;;;1.63;0.93;;;24.90;47.60;;;;;;6231088;23;20093;-73
2022/07/02 10:49:04;;;;;;;4.15;1.10;;;25.00;47.50;;;;;;6203641;23;20085;-72
2022/07/02 10:51:34;;;;;;;2.85;1.27;;;25.00;46.90;;;;;;6204451;23;20460;-73
2022/07/02 10:54:07;;;;;;;4.60;0.88;;;25.00;47.90;;;;;;6240868;23;20054;-72
2022/07/02 10:56:44;;;;;;;3.40;1.10;;;25.00;48.30;;;;;;6230954;23;20012;-72
2022/07/02 10:59:36;;;;;;;4.28;0.95;;;25.00;46.90;;;;;;6230442;23;20020;-72
2022/07/02 11:02:04;;;;;;;1.17;0.93;;;25.00;46.50;;;;;;6242128;23;20004;-72
2022/07/02 11:04:30;;;;;;;3.53;1.13;;;24.90;47.00;;;;;;6240573;23;20510;-72
2022/07/02 11:07:07;;;;;;;1.52;1.02;;;25.00;46.60;;;;;;6231876;23;20016;-72
2022/07/02 11:09:43;;;;;;;2.25;0.93;;;25.00;47.20;;;;;;6240623;23;20019;-75
2022/07/02 11:12:09;;;;;;;1.50;0.80;;;25.00;46.40;;;;;;6240413;23;20166;-76
2022/07/02 11:14:36;;;;;;;2.38;0.93;;;25.00;46.20;;;;;;6230619;23;20008;-73
2022/07/02 11:17:02;;;;;;;1.65;0.90;;;25.10;46.50;;;;;;6231053;23;20442;-72
2022/07/02 11:19:30;;;;;;;4.50;1.20;;;25.10;48.70;;;;;;6230059;23;20086;-73
2022/07/02 11:21:58;;;;;;;1.48;1.00;;;25.10;49.40;;;;;;6230880;23;20154;-74
2022/07/02 11:24:27;;;;;;;3.15;1.20;;;25.20;45.80;;;;;;6240142;23;20070;-74
2022/07/02 11:26:53;;;;;;;2.88;0.82;;;25.20;46.90;;;;;;6230142;23;20382;-73
2022/07/02 11:29:19;;;;;;;2.47;1.13;;;25.20;46.60;;;;;;6230816;23;20015;-74
2022/07/02 11:31:47;;;;;;;1.33;0.73;;;25.20;46.90;;;;;;6230645;23;20087;-73
2022/07/02 11:34:19;;;;;;;2.20;0.95;;;25.30;47.50;;;;;;6239761;23;20004;-72
2022/07/02 11:36:45;;;;;;;4.07;1.25;;;25.30;46.60;;;;;;6229263;23;20469;-73
2022/07/02 11:39:15;;;;;;;8.32;4.13;;;25.50;46.50;;;;;;6229808;23;20134;-73
2022/07/02 11:41:42;;;;;;;1.70;1.00;;;25.60;45.00;;;;;;6229801;23;20087;-73
2022/07/02 11:44:22;;;;;;;1.60;0.80;;;25.60;45.30;;;;;;6240865;23;20012;-73
2022/07/02 11:46:56;;;;;;;3.22;0.90;;;25.60;46.30;;;;;;6230456;23;20760;-73
2022/07/02 11:49:40;;;;;;;3.28;0.80;;;25.60;46.70;;;;;;6239949;23;20008;-73
2022/07/02 11:52:06;;;;;;;3.33;0.80;;;25.40;45.00;;;;;;6241492;23;20083;-73
2022/07/02 11:54:32;;;;;;;4.13;1.30;;;25.30;46.30;;;;;;6229353;23;20350;-73
2022/07/02 11:56:58;;;;;;;1.77;0.90;;;25.30;47.00;;;;;;6240652;23;20008;-72
2022/07/02 11:59:25;;;;;;;1.45;1.10;;;25.40;46.30;;;;;;6229830;23;20089;-73
2022/07/02 12:01:52;;;;;;;2.70;0.88;;;25.40;45.70;;;;;;6239591;23;20018;-73
2022/07/02 12:04:21;;;;;;;1.58;0.80;;;25.40;42.40;;;;;;6202197;23;20950;-72
2022/07/02 12:06:50;;;;;;;5.65;1.00;;;25.40;44.80;;;;;;6229306;23;20023;-73
2022/07/02 12:09:18;;;;;;;1.60;0.90;;;25.50;46.10;;;;;;6228552;23;20014;-73
2022/07/02 12:11:47;;;;;;;2.85;0.90;;;25.40;45.20;;;;;;6229239;23;20010;-73
2022/07/02 12:14:14;;;;;;;4.75;1.05;;;25.60;46.00;;;;;;6230659;23;20019;-73
2022/07/02 12:16:44;;;;;;;3.03;1.20;;;25.50;45.90;;;;;;6229429;23;20079;-73
2022/07/02 12:19:13;;;;;;;1.02;0.65;;;25.50;46.10;;;;;;6230371;23;20023;-73
2022/07/02 12:21:45;;;;;;;1.67;0.70;;;25.50;43.20;;;;;;6230734;23;20505;-73
2022/07/02 12:24:24;;;;;;;1.27;0.80;;;25.50;44.20;;;;;;6230485;23;20038;-73
2022/07/02 12:26:53;;;;;;;2.53;0.82;;;25.50;45.00;;;;;;6240697;23;20083;-73
2022/07/02 12:32:08;;;;;;;1.15;0.70;;;25.40;44.20;;;;;;6231443;23;20038;-73
2022/07/02 12:34:49;;;;;;;1.80;1.00;;;25.30;41.80;;;;;;6230811;23;20132;-73
2022/07/02 12:37:23;;;;;;;0.73;0.65;;;25.30;43.50;;;;;;6231294;23;20393;-73
2022/07/02 12:39:56;;;;;;;2.17;0.65;;;25.30;43.40;;;;;;6240061;23;20194;-73
2022/07/02 12:42:23;;;;;;;2.35;0.88;;;25.50;43.70;;;;;;6230516;23;20042;-73
2022/07/02 12:45:05;;;;;;;3.15;0.80;;;25.50;43.30;;;;;;6240422;23;20214;-73
2022/07/02 12:47:35;;;;;;;3.50;0.93;;;25.60;45.00;;;;;;6240401;23;20008;-73
2022/07/02 12:50:21;;;;;;;0.98;0.57;;;25.60;43.80;;;;;;6230165;23;20822;-73
2022/07/02 12:52:50;;;;;;;0.90;0.68;;;25.60;43.90;;;;;;6229900;23;20012;-74